sensor_id;sensor_type;location;lat;lon;timestamp;P1;durP1;ratioP1;P2;durP2;ratioP2
71696;SDS011;68167;59.120;37.898;2023-04-25T00:01:21;6.93;;;3.00;;
71696;SDS011;68167;59.120;37.898;2023-04-25T00:03:48;7.53;;;3.70;;
71696;SDS011;68167;59.120;37.898;2023-04-25T00:06:14;5.53;;;3.83;;
71696;SDS011;68167;59.120;37.898;2023-04-25T00:08:40;5.67;;;3.30;;
71696;SDS011;68167;59.120;37.898;2023-04-25T00:11:07;4.53;;;2.80;;
71696;SDS011;68167;59.120;37.898;2023-04-25T00:13:33;9.73;;;3.50;;
71696;SDS011;68167;59.120;37.898;2023-04-25T00:16:00;7.43;;;3.40;;
71696;SDS011;68167;59.120;37.898;2023-04-25T00:18:28;6.87;;;2.67;;
71696;SDS011;68167;59.120;37.898;2023-04-25T00:20:55;8.03;;;3.07;;
71696;SDS011;68167;59.120;37.898;2023-04-25T00:23:22;4.50;;;2.87;;
71696;SDS011;68167;59.120;37.898;2023-04-25T00:25:49;4.20;;;3.00;;
71696;SDS011;68167;59.120;37.898;2023-04-25T00:28:16;7.57;;;3.20;;
71696;SDS011;68167;59.120;37.898;2023-04-25T00:30:43;6.67;;;3.33;;
71696;SDS011;68167;59.120;37.898;2023-04-25T00:33:09;8.47;;;3.00;;
71696;SDS011;68167;59.120;37.898;2023-04-25T00:35:36;5.60;;;2.83;;
71696;SDS011;68167;59.120;37.898;2023-04-25T00:38:02;4.10;;;2.80;;
71696;SDS011;68167;59.120;37.898;2023-04-25T00:40:29;5.20;;;3.17;;
71696;SDS011;68167;59.120;37.898;2023-04-25T00:42:55;5.00;;;3.13;;
71696;SDS011;68167;59.120;37.898;2023-04-25T00:45:21;8.50;;;3.10;;
71696;SDS011;68167;59.120;37.898;2023-04-25T00:47:54;5.47;;;3.00;;
71696;SDS011;68167;59.120;37.898;2023-04-25T00:50:21;6.43;;;3.20;;
71696;SDS011;68167;59.120;37.898;2023-04-25T00:52:47;5.23;;;2.83;;
71696;SDS011;68167;59.120;37.898;2023-04-25T00:55:14;7.87;;;2.73;;
71696;SDS011;68167;59.120;37.898;2023-04-25T00:57:42;6.40;;;3.50;;
71696;SDS011;68167;59.120;37.898;2023-04-25T01:00:08;6.20;;;3.10;;
71696;SDS011;68167;59.120;37.898;2023-04-25T01:02:36;5.47;;;3.17;;
71696;SDS011;68167;59.120;37.898;2023-04-25T01:05:03;3.70;;;2.90;;
71696;SDS011;68167;59.120;37.898;2023-04-25T01:07:33;6.37;;;3.10;;
71696;SDS011;68167;59.120;37.898;2023-04-25T01:09:59;5.37;;;2.80;;
71696;SDS011;68167;59.120;37.898;2023-04-25T01:12:29;4.40;;;3.00;;
71696;SDS011;68167;59.120;37.898;2023-04-25T01:14:56;7.33;;;3.40;;
71696;SDS011;68167;59.120;37.898;2023-04-25T01:17:23;5.73;;;2.70;;
71696;SDS011;68167;59.120;37.898;2023-04-25T01:19:49;5.90;;;2.93;;
71696;SDS011;68167;59.120;37.898;2023-04-25T01:22:17;7.37;;;3.03;;
71696;SDS011;68167;59.120;37.898;2023-04-25T01:24:43;5.77;;;3.13;;
71696;SDS011;68167;59.120;37.898;2023-04-25T01:27:11;6.43;;;2.97;;
71696;SDS011;68167;59.120;37.898;2023-04-25T01:29:38;9.77;;;3.60;;
71696;SDS011;68167;59.120;37.898;2023-04-25T01:32:05;7.03;;;3.40;;
71696;SDS011;68167;59.120;37.898;2023-04-25T01:34:32;6.27;;;3.27;;
71696;SDS011;68167;59.120;37.898;2023-04-25T01:36:59;8.23;;;3.00;;
71696;SDS011;68167;59.120;37.898;2023-04-25T01:39:29;5.07;;;3.40;;
71696;SDS011;68167;59.120;37.898;2023-04-25T01:41:56;6.27;;;3.40;;
71696;SDS011;68167;59.120;37.898;2023-04-25T01:44:23;4.10;;;3.10;;
71696;SDS011;68167;59.120;37.898;2023-04-25T01:46:50;10.03;;;3.30;;
71696;SDS011;68167;59.120;37.898;2023-04-25T01:49:17;6.20;;;2.80;;
71696;SDS011;68167;59.120;37.898;2023-04-25T01:51:44;6.23;;;2.80;;
71696;SDS011;68167;59.120;37.898;2023-04-25T01:54:11;6.00;;;2.73;;
71696;SDS011;68167;59.120;37.898;2023-04-25T01:56:39;4.47;;;2.97;;
71696;SDS011;68167;59.120;37.898;2023-04-25T01:59:08;4.60;;;2.97;;
71696;SDS011;68167;59.120;37.898;2023-04-25T02:02:03;6.60;;;3.37;;
71696;SDS011;68167;59.120;37.898;2023-04-25T02:04:32;5.43;;;2.67;;
71696;SDS011;68167;59.120;37.898;2023-04-25T02:06:58;5.80;;;3.50;;
71696;SDS011;68167;59.120;37.898;2023-04-25T02:09:33;6.60;;;3.30;;
71696;SDS011;68167;59.120;37.898;2023-04-25T02:12:03;6.27;;;3.00;;
71696;SDS011;68167;59.120;37.898;2023-04-25T02:14:35;6.43;;;3.50;;
71696;SDS011;68167;59.120;37.898;2023-04-25T02:17:11;4.80;;;3.37;;
71696;SDS011;68167;59.120;37.898;2023-04-25T02:19:38;7.67;;;3.30;;
71696;SDS011;68167;59.120;37.898;2023-04-25T02:22:07;9.23;;;3.67;;
71696;SDS011;68167;59.120;37.898;2023-04-25T02:24:33;10.13;;;3.90;;
71696;SDS011;68167;59.120;37.898;2023-04-25T02:27:01;9.20;;;3.60;;
71696;SDS011;68167;59.120;37.898;2023-04-25T02:29:28;5.70;;;3.43;;
71696;SDS011;68167;59.120;37.898;2023-04-25T02:31:55;5.87;;;3.37;;
71696;SDS011;68167;59.120;37.898;2023-04-25T02:34:22;7.27;;;3.10;;
71696;SDS011;68167;59.120;37.898;2023-04-25T02:36:49;8.30;;;3.37;;
71696;SDS011;68167;59.120;37.898;2023-04-25T02:39:18;14.13;;;3.20;;
71696;SDS011;68167;59.120;37.898;2023-04-25T02:41:45;7.00;;;2.77;;
71696;SDS011;68167;59.120;37.898;2023-04-25T02:44:11;6.53;;;3.40;;
71696;SDS011;68167;59.120;37.898;2023-04-25T02:46:38;4.93;;;3.23;;
71696;SDS011;68167;59.120;37.898;2023-04-25T02:49:05;11.57;;;3.30;;
71696;SDS011;68167;59.120;37.898;2023-04-25T02:51:33;5.40;;;3.40;;
71696;SDS011;68167;59.120;37.898;2023-04-25T02:54:00;7.03;;;3.10;;
71696;SDS011;68167;59.120;37.898;2023-04-25T02:56:26;15.03;;;3.80;;
71696;SDS011;68167;59.120;37.898;2023-04-25T02:58:53;6.23;;;3.13;;
71696;SDS011;68167;59.120;37.898;2023-04-25T03:01:20;7.90;;;3.23;;
71696;SDS011;68167;59.120;37.898;2023-04-25T03:03:47;7.37;;;3.40;;
71696;SDS011;68167;59.120;37.898;2023-04-25T03:06:13;7.00;;;3.63;;
71696;SDS011;68167;59.120;37.898;2023-04-25T03:08:41;7.03;;;3.57;;
71696;SDS011;68167;59.120;37.898;2023-04-25T03:11:09;6.13;;;3.47;;
71696;SDS011;68167;59.120;37.898;2023-04-25T03:13:36;8.97;;;4.20;;
71696;SDS011;68167;59.120;37.898;2023-04-25T03:16:03;5.57;;;2.83;;
71696;SDS011;68167;59.120;37.898;2023-04-25T03:18:30;9.90;;;3.73;;
71696;SDS011;68167;59.120;37.898;2023-04-25T03:20:57;8.40;;;3.73;;
71696;SDS011;68167;59.120;37.898;2023-04-25T03:23:23;9.43;;;3.63;;
71696;SDS011;68167;59.120;37.898;2023-04-25T03:25:50;9.50;;;3.40;;
71696;SDS011;68167;59.120;37.898;2023-04-25T03:28:17;4.33;;;3.00;;
71696;SDS011;68167;59.120;37.898;2023-04-25T03:30:44;7.40;;;3.50;;
71696;SDS011;68167;59.120;37.898;2023-04-25T03:33:10;17.07;;;4.73;;
71696;SDS011;68167;59.120;37.898;2023-04-25T03:35:37;6.33;;;3.60;;
71696;SDS011;68167;59.120;37.898;2023-04-25T03:38:04;6.57;;;3.67;;
71696;SDS011;68167;59.120;37.898;2023-04-25T03:40:35;7.47;;;3.97;;
71696;SDS011;68167;59.120;37.898;2023-04-25T03:43:08;6.50;;;4.03;;
71696;SDS011;68167;59.120;37.898;2023-04-25T03:45:36;10.50;;;4.50;;
71696;SDS011;68167;59.120;37.898;2023-04-25T03:48:03;6.73;;;3.90;;
71696;SDS011;68167;59.120;37.898;2023-04-25T03:50:30;9.93;;;4.17;;
71696;SDS011;68167;59.120;37.898;2023-04-25T03:52:57;7.53;;;4.40;;
71696;SDS011;68167;59.120;37.898;2023-04-25T03:55:26;6.93;;;3.70;;
71696;SDS011;68167;59.120;37.898;2023-04-25T03:57:53;6.77;;;4.37;;
71696;SDS011;68167;59.120;37.898;2023-04-25T04:00:20;12.53;;;4.60;;
71696;SDS011;68167;59.120;37.898;2023-04-25T04:02:50;10.40;;;3.57;;
71696;SDS011;68167;59.120;37.898;2023-04-25T04:05:18;6.53;;;3.60;;
71696;SDS011;68167;59.120;37.898;2023-04-25T04:07:51;9.37;;;3.77;;
71696;SDS011;68167;59.120;37.898;2023-04-25T04:10:17;5.43;;;3.83;;
71696;SDS011;68167;59.120;37.898;2023-04-25T04:12:45;9.63;;;3.70;;
71696;SDS011;68167;59.120;37.898;2023-04-25T04:15:12;10.60;;;3.83;;
71696;SDS011;68167;59.120;37.898;2023-04-25T04:17:39;7.33;;;4.07;;
71696;SDS011;68167;59.120;37.898;2023-04-25T04:20:08;11.83;;;4.27;;
71696;SDS011;68167;59.120;37.898;2023-04-25T04:22:35;7.93;;;3.47;;
71696;SDS011;68167;59.120;37.898;2023-04-25T04:25:07;9.53;;;3.80;;
71696;SDS011;68167;59.120;37.898;2023-04-25T04:28:09;6.80;;;3.47;;
71696;SDS011;68167;59.120;37.898;2023-04-25T04:31:03;10.67;;;4.33;;
71696;SDS011;68167;59.120;37.898;2023-04-25T04:33:30;10.93;;;4.53;;
71696;SDS011;68167;59.120;37.898;2023-04-25T04:36:00;10.70;;;4.50;;
71696;SDS011;68167;59.120;37.898;2023-04-25T04:38:29;13.17;;;4.60;;
71696;SDS011;68167;59.120;37.898;2023-04-25T04:41:00;9.37;;;4.33;;
71696;SDS011;68167;59.120;37.898;2023-04-25T04:43:49;9.10;;;4.10;;
71696;SDS011;68167;59.120;37.898;2023-04-25T04:46:54;8.83;;;4.20;;
71696;SDS011;68167;59.120;37.898;2023-04-25T04:49:32;10.27;;;4.10;;
71696;SDS011;68167;59.120;37.898;2023-04-25T04:52:18;11.60;;;4.30;;
71696;SDS011;68167;59.120;37.898;2023-04-25T04:54:48;10.07;;;4.47;;
71696;SDS011;68167;59.120;37.898;2023-04-25T04:57:35;15.43;;;4.30;;
71696;SDS011;68167;59.120;37.898;2023-04-25T05:00:18;10.93;;;4.80;;
71696;SDS011;68167;59.120;37.898;2023-04-25T05:03:06;11.83;;;4.30;;
71696;SDS011;68167;59.120;37.898;2023-04-25T05:05:51;7.67;;;4.00;;
71696;SDS011;68167;59.120;37.898;2023-04-25T05:08:27;9.93;;;3.90;;
71696;SDS011;68167;59.120;37.898;2023-04-25T05:11:12;9.40;;;4.30;;
71696;SDS011;68167;59.120;37.898;2023-04-25T05:13:59;8.43;;;3.90;;
71696;SDS011;68167;59.120;37.898;2023-04-25T05:16:41;7.27;;;3.90;;
71696;SDS011;68167;59.120;37.898;2023-04-25T05:19:28;9.20;;;4.40;;
71696;SDS011;68167;59.120;37.898;2023-04-25T05:22:13;14.53;;;4.27;;
71696;SDS011;68167;59.120;37.898;2023-04-25T05:24:54;7.43;;;4.13;;
71696;SDS011;68167;59.120;37.898;2023-04-25T05:27:50;13.83;;;4.33;;
71696;SDS011;68167;59.120;37.898;2023-04-25T05:30:47;9.27;;;4.87;;
71696;SDS011;68167;59.120;37.898;2023-04-25T05:33:16;10.83;;;4.07;;
71696;SDS011;68167;59.120;37.898;2023-04-25T05:35:44;9.00;;;4.10;;
71696;SDS011;68167;59.120;37.898;2023-04-25T05:38:11;12.67;;;4.47;;
71696;SDS011;68167;59.120;37.898;2023-04-25T05:40:56;11.30;;;4.20;;
71696;SDS011;68167;59.120;37.898;2023-04-25T05:43:38;5.83;;;4.10;;
71696;SDS011;68167;59.120;37.898;2023-04-25T05:46:19;10.67;;;4.10;;
71696;SDS011;68167;59.120;37.898;2023-04-25T05:49:08;9.47;;;4.03;;
71696;SDS011;68167;59.120;37.898;2023-04-25T05:51:54;9.63;;;4.40;;
71696;SDS011;68167;59.120;37.898;2023-04-25T05:54:53;11.23;;;4.13;;
71696;SDS011;68167;59.120;37.898;2023-04-25T05:57:26;16.23;;;4.20;;
71696;SDS011;68167;59.120;37.898;2023-04-25T05:59:55;13.87;;;4.60;;
71696;SDS011;68167;59.120;37.898;2023-04-25T06:02:25;14.90;;;4.20;;
71696;SDS011;68167;59.120;37.898;2023-04-25T06:04:53;9.87;;;4.00;;
71696;SDS011;68167;59.120;37.898;2023-04-25T06:07:22;49.03;;;7.40;;
71696;SDS011;68167;59.120;37.898;2023-04-25T06:09:48;49.27;;;6.20;;
71696;SDS011;68167;59.120;37.898;2023-04-25T06:12:15;40.67;;;6.30;;
71696;SDS011;68167;59.120;37.898;2023-04-25T06:14:42;18.07;;;4.77;;
71696;SDS011;68167;59.120;37.898;2023-04-25T06:17:08;13.13;;;4.47;;
71696;SDS011;68167;59.120;37.898;2023-04-25T06:19:35;8.97;;;4.40;;
71696;SDS011;68167;59.120;37.898;2023-04-25T06:22:02;7.20;;;4.20;;
71696;SDS011;68167;59.120;37.898;2023-04-25T06:24:30;13.80;;;4.20;;
71696;SDS011;68167;59.120;37.898;2023-04-25T06:26:57;18.33;;;5.00;;
71696;SDS011;68167;59.120;37.898;2023-04-25T06:29:24;12.77;;;5.20;;
71696;SDS011;68167;59.120;37.898;2023-04-25T06:31:50;10.47;;;4.67;;
71696;SDS011;68167;59.120;37.898;2023-04-25T06:34:17;11.77;;;4.40;;
71696;SDS011;68167;59.120;37.898;2023-04-25T06:36:44;10.97;;;4.50;;
71696;SDS011;68167;59.120;37.898;2023-04-25T06:39:14;11.43;;;4.47;;
71696;SDS011;68167;59.120;37.898;2023-04-25T06:41:40;11.00;;;4.43;;
71696;SDS011;68167;59.120;37.898;2023-04-25T06:44:14;8.90;;;4.80;;
71696;SDS011;68167;59.120;37.898;2023-04-25T06:46:51;15.40;;;4.50;;
71696;SDS011;68167;59.120;37.898;2023-04-25T06:49:18;12.07;;;4.40;;
71696;SDS011;68167;59.120;37.898;2023-04-25T06:51:45;16.40;;;4.60;;
71696;SDS011;68167;59.120;37.898;2023-04-25T06:54:11;11.53;;;4.87;;
71696;SDS011;68167;59.120;37.898;2023-04-25T06:56:45;10.83;;;4.33;;
71696;SDS011;68167;59.120;37.898;2023-04-25T06:59:16;7.47;;;4.10;;
71696;SDS011;68167;59.120;37.898;2023-04-25T07:01:45;11.43;;;4.33;;
71696;SDS011;68167;59.120;37.898;2023-04-25T07:04:17;8.97;;;4.93;;
71696;SDS011;68167;59.120;37.898;2023-04-25T07:06:55;10.37;;;5.77;;
71696;SDS011;68167;59.120;37.898;2023-04-25T07:09:42;12.00;;;4.50;;
71696;SDS011;68167;59.120;37.898;2023-04-25T07:12:08;13.53;;;4.90;;
71696;SDS011;68167;59.120;37.898;2023-04-25T07:14:35;11.40;;;4.40;;
71696;SDS011;68167;59.120;37.898;2023-04-25T07:17:01;15.23;;;5.23;;
71696;SDS011;68167;59.120;37.898;2023-04-25T07:19:29;7.70;;;5.10;;
71696;SDS011;68167;59.120;37.898;2023-04-25T07:21:59;13.63;;;4.60;;
71696;SDS011;68167;59.120;37.898;2023-04-25T07:24:26;9.53;;;4.60;;
71696;SDS011;68167;59.120;37.898;2023-04-25T07:26:54;10.37;;;4.87;;
71696;SDS011;68167;59.120;37.898;2023-04-25T07:29:53;10.03;;;5.17;;
71696;SDS011;68167;59.120;37.898;2023-04-25T07:32:22;10.40;;;5.10;;
71696;SDS011;68167;59.120;37.898;2023-04-25T07:34:48;10.87;;;5.40;;
71696;SDS011;68167;59.120;37.898;2023-04-25T07:37:15;14.00;;;5.13;;
71696;SDS011;68167;59.120;37.898;2023-04-25T07:39:56;18.30;;;6.33;;
71696;SDS011;68167;59.120;37.898;2023-04-25T07:42:25;21.57;;;6.13;;
71696;SDS011;68167;59.120;37.898;2023-04-25T07:44:51;23.47;;;6.33;;
71696;SDS011;68167;59.120;37.898;2023-04-25T07:47:18;17.17;;;5.87;;
71696;SDS011;68167;59.120;37.898;2023-04-25T07:49:47;14.53;;;6.20;;
71696;SDS011;68167;59.120;37.898;2023-04-25T07:52:14;10.93;;;5.53;;
71696;SDS011;68167;59.120;37.898;2023-04-25T07:54:46;12.87;;;6.33;;
71696;SDS011;68167;59.120;37.898;2023-04-25T07:57:18;13.50;;;5.90;;
71696;SDS011;68167;59.120;37.898;2023-04-25T07:59:47;12.57;;;5.27;;
71696;SDS011;68167;59.120;37.898;2023-04-25T08:02:13;7.57;;;5.37;;
71696;SDS011;68167;59.120;37.898;2023-04-25T08:04:40;11.07;;;5.63;;
71696;SDS011;68167;59.120;37.898;2023-04-25T08:07:08;15.43;;;5.33;;
71696;SDS011;68167;59.120;37.898;2023-04-25T08:09:42;19.37;;;6.07;;
71696;SDS011;68167;59.120;37.898;2023-04-25T08:12:16;14.63;;;5.57;;
71696;SDS011;68167;59.120;37.898;2023-04-25T08:14:44;11.33;;;5.57;;
71696;SDS011;68167;59.120;37.898;2023-04-25T08:17:10;18.93;;;5.70;;
71696;SDS011;68167;59.120;37.898;2023-04-25T08:19:40;13.40;;;5.33;;
71696;SDS011;68167;59.120;37.898;2023-04-25T08:22:12;9.47;;;5.43;;
71696;SDS011;68167;59.120;37.898;2023-04-25T08:24:49;17.37;;;5.57;;
71696;SDS011;68167;59.120;37.898;2023-04-25T08:27:17;15.37;;;5.30;;
71696;SDS011;68167;59.120;37.898;2023-04-25T08:29:44;7.03;;;5.20;;
71696;SDS011;68167;59.120;37.898;2023-04-25T08:32:10;8.00;;;5.50;;
71696;SDS011;68167;59.120;37.898;2023-04-25T08:34:42;8.63;;;5.17;;
71696;SDS011;68167;59.120;37.898;2023-04-25T08:37:09;6.90;;;5.43;;
71696;SDS011;68167;59.120;37.898;2023-04-25T08:39:40;10.90;;;5.33;;
71696;SDS011;68167;59.120;37.898;2023-04-25T08:42:26;11.57;;;5.30;;
71696;SDS011;68167;59.120;37.898;2023-04-25T08:44:55;13.20;;;6.20;;
71696;SDS011;68167;59.120;37.898;2023-04-25T08:47:25;12.47;;;4.80;;
71696;SDS011;68167;59.120;37.898;2023-04-25T08:49:56;10.17;;;5.50;;
71696;SDS011;68167;59.120;37.898;2023-04-25T08:52:27;8.07;;;5.63;;
71696;SDS011;68167;59.120;37.898;2023-04-25T08:54:58;11.03;;;5.80;;
71696;SDS011;68167;59.120;37.898;2023-04-25T08:57:30;11.27;;;4.83;;
71696;SDS011;68167;59.120;37.898;2023-04-25T08:59:58;11.87;;;5.70;;
71696;SDS011;68167;59.120;37.898;2023-04-25T09:02:30;7.63;;;5.10;;
71696;SDS011;68167;59.120;37.898;2023-04-25T09:04:57;11.47;;;6.47;;
71696;SDS011;68167;59.120;37.898;2023-04-25T09:07:25;10.97;;;5.33;;
71696;SDS011;68167;59.120;37.898;2023-04-25T09:09:51;11.93;;;5.93;;
71696;SDS011;68167;59.120;37.898;2023-04-25T09:12:21;13.07;;;5.77;;
71696;SDS011;68167;59.120;37.898;2023-04-25T09:17:42;12.17;;;5.87;;
71696;SDS011;68167;59.120;37.898;2023-04-25T09:20:14;14.10;;;5.93;;
71696;SDS011;68167;59.120;37.898;2023-04-25T09:22:41;14.60;;;5.70;;
71696;SDS011;68167;59.120;37.898;2023-04-25T09:25:10;16.37;;;5.50;;
71696;SDS011;68167;59.120;37.898;2023-04-25T09:27:50;8.23;;;5.17;;
71696;SDS011;68167;59.120;37.898;2023-04-25T09:30:33;10.30;;;5.23;;
71696;SDS011;68167;59.120;37.898;2023-04-25T09:33:11;9.40;;;5.40;;
71696;SDS011;68167;59.120;37.898;2023-04-25T09:35:44;13.90;;;5.13;;
71696;SDS011;68167;59.120;37.898;2023-04-25T09:38:40;10.73;;;5.30;;
71696;SDS011;68167;59.120;37.898;2023-04-25T09:41:16;9.43;;;4.97;;
71696;SDS011;68167;59.120;37.898;2023-04-25T09:43:50;11.27;;;5.20;;
71696;SDS011;68167;59.120;37.898;2023-04-25T09:46:16;13.57;;;5.07;;
71696;SDS011;68167;59.120;37.898;2023-04-25T09:48:49;12.80;;;8.07;;
71696;SDS011;68167;59.120;37.898;2023-04-25T09:51:22;9.43;;;5.30;;
71696;SDS011;68167;59.120;37.898;2023-04-25T09:53:52;7.00;;;5.50;;
71696;SDS011;68167;59.120;37.898;2023-04-25T09:56:38;7.90;;;5.37;;
71696;SDS011;68167;59.120;37.898;2023-04-25T09:59:07;11.10;;;5.23;;
71696;SDS011;68167;59.120;37.898;2023-04-25T10:01:36;7.00;;;5.20;;
71696;SDS011;68167;59.120;37.898;2023-04-25T10:04:12;12.77;;;4.97;;
71696;SDS011;68167;59.120;37.898;2023-04-25T10:06:58;12.57;;;5.20;;
71696;SDS011;68167;59.120;37.898;2023-04-25T10:09:25;9.63;;;6.10;;
71696;SDS011;68167;59.120;37.898;2023-04-25T10:11:54;8.30;;;5.53;;
71696;SDS011;68167;59.120;37.898;2023-04-25T10:14:22;11.43;;;6.07;;
71696;SDS011;68167;59.120;37.898;2023-04-25T10:16:50;8.73;;;6.43;;
71696;SDS011;68167;59.120;37.898;2023-04-25T10:19:20;8.23;;;5.97;;
71696;SDS011;68167;59.120;37.898;2023-04-25T10:24:22;9.33;;;6.17;;
71696;SDS011;68167;59.120;37.898;2023-04-25T10:26:50;10.13;;;7.00;;
71696;SDS011;68167;59.120;37.898;2023-04-25T10:29:24;10.60;;;6.53;;
71696;SDS011;68167;59.120;37.898;2023-04-25T10:31:51;10.97;;;6.47;;
71696;SDS011;68167;59.120;37.898;2023-04-25T10:34:18;12.20;;;6.20;;
71696;SDS011;68167;59.120;37.898;2023-04-25T10:36:51;10.33;;;5.90;;
71696;SDS011;68167;59.120;37.898;2023-04-25T10:39:22;11.93;;;6.67;;
71696;SDS011;68167;59.120;37.898;2023-04-25T10:44:21;10.93;;;6.40;;
71696;SDS011;68167;59.120;37.898;2023-04-25T10:46:48;9.00;;;6.13;;
71696;SDS011;68167;59.120;37.898;2023-04-25T10:49:29;13.20;;;6.13;;
71696;SDS011;68167;59.120;37.898;2023-04-25T10:52:14;11.17;;;5.97;;
71696;SDS011;68167;59.120;37.898;2023-04-25T10:54:42;14.63;;;7.10;;
71696;SDS011;68167;59.120;37.898;2023-04-25T10:57:28;11.00;;;5.70;;
71696;SDS011;68167;59.120;37.898;2023-04-25T11:00:06;10.17;;;5.60;;
71696;SDS011;68167;59.120;37.898;2023-04-25T11:05:31;8.30;;;5.43;;
71696;SDS011;68167;59.120;37.898;2023-04-25T11:08:02;10.00;;;5.70;;
71696;SDS011;68167;59.120;37.898;2023-04-25T11:10:30;8.13;;;6.00;;
71696;SDS011;68167;59.120;37.898;2023-04-25T11:12:58;8.57;;;6.10;;
71696;SDS011;68167;59.120;37.898;2023-04-25T11:15:26;7.53;;;5.93;;
71696;SDS011;68167;59.120;37.898;2023-04-25T11:17:53;11.50;;;5.53;;
71696;SDS011;68167;59.120;37.898;2023-04-25T11:20:21;10.93;;;5.70;;
71696;SDS011;68167;59.120;37.898;2023-04-25T11:22:52;10.67;;;6.10;;
71696;SDS011;68167;59.120;37.898;2023-04-25T11:25:18;10.57;;;6.10;;
71696;SDS011;68167;59.120;37.898;2023-04-25T11:27:49;12.57;;;5.73;;
71696;SDS011;68167;59.120;37.898;2023-04-25T11:30:17;14.73;;;6.13;;
71696;SDS011;68167;59.120;37.898;2023-04-25T11:32:45;11.77;;;6.13;;
71696;SDS011;68167;59.120;37.898;2023-04-25T11:35:12;15.13;;;6.00;;
71696;SDS011;68167;59.120;37.898;2023-04-25T11:37:39;15.93;;;6.53;;
71696;SDS011;68167;59.120;37.898;2023-04-25T11:40:07;33.63;;;9.00;;
71696;SDS011;68167;59.120;37.898;2023-04-25T11:42:36;12.30;;;6.47;;
71696;SDS011;68167;59.120;37.898;2023-04-25T11:45:09;14.50;;;5.80;;
71696;SDS011;68167;59.120;37.898;2023-04-25T11:47:36;17.70;;;5.87;;
71696;SDS011;68167;59.120;37.898;2023-04-25T11:50:04;8.60;;;5.93;;
71696;SDS011;68167;59.120;37.898;2023-04-25T11:52:44;10.33;;;5.60;;
71696;SDS011;68167;59.120;37.898;2023-04-25T11:55:13;7.30;;;5.80;;
71696;SDS011;68167;59.120;37.898;2023-04-25T11:57:42;13.33;;;5.07;;
71696;SDS011;68167;59.120;37.898;2023-04-25T12:00:12;10.07;;;5.63;;
71696;SDS011;68167;59.120;37.898;2023-04-25T12:02:41;9.83;;;5.77;;
71696;SDS011;68167;59.120;37.898;2023-04-25T12:05:11;13.67;;;6.10;;
71696;SDS011;68167;59.120;37.898;2023-04-25T12:07:39;8.63;;;5.30;;
71696;SDS011;68167;59.120;37.898;2023-04-25T12:10:08;13.60;;;6.20;;
71696;SDS011;68167;59.120;37.898;2023-04-25T12:12:43;12.57;;;5.83;;
71696;SDS011;68167;59.120;37.898;2023-04-25T12:17:47;11.47;;;5.73;;
71696;SDS011;68167;59.120;37.898;2023-04-25T12:20:15;8.57;;;5.80;;
71696;SDS011;68167;59.120;37.898;2023-04-25T12:22:45;10.77;;;5.33;;
71696;SDS011;68167;59.120;37.898;2023-04-25T12:25:13;9.80;;;5.40;;
71696;SDS011;68167;59.120;37.898;2023-04-25T12:30:54;19.57;;;6.30;;
71696;SDS011;68167;59.120;37.898;2023-04-25T12:33:32;9.70;;;5.07;;
71696;SDS011;68167;59.120;37.898;2023-04-25T12:36:00;7.77;;;5.03;;
71696;SDS011;68167;59.120;37.898;2023-04-25T12:38:36;8.03;;;4.83;;
71696;SDS011;68167;59.120;37.898;2023-04-25T12:41:04;6.57;;;4.83;;
71696;SDS011;68167;59.120;37.898;2023-04-25T12:43:32;8.57;;;5.10;;
71696;SDS011;68167;59.120;37.898;2023-04-25T12:45:59;8.77;;;5.20;;
71696;SDS011;68167;59.120;37.898;2023-04-25T12:48:25;9.37;;;5.07;;
71696;SDS011;68167;59.120;37.898;2023-04-25T12:50:52;17.00;;;5.50;;
71696;SDS011;68167;59.120;37.898;2023-04-25T12:53:20;9.63;;;5.47;;
71696;SDS011;68167;59.120;37.898;2023-04-25T12:55:47;6.87;;;4.80;;
71696;SDS011;68167;59.120;37.898;2023-04-25T12:58:15;15.80;;;5.03;;
71696;SDS011;68167;59.120;37.898;2023-04-25T13:00:43;20.87;;;5.47;;
71696;SDS011;68167;59.120;37.898;2023-04-25T13:03:10;10.93;;;5.70;;
71696;SDS011;68167;59.120;37.898;2023-04-25T13:05:38;8.60;;;5.40;;
71696;SDS011;68167;59.120;37.898;2023-04-25T13:08:05;10.50;;;6.13;;
71696;SDS011;68167;59.120;37.898;2023-04-25T13:10:31;10.90;;;5.77;;
71696;SDS011;68167;59.120;37.898;2023-04-25T13:13:00;13.63;;;5.90;;
71696;SDS011;68167;59.120;37.898;2023-04-25T13:15:27;10.93;;;5.83;;
71696;SDS011;68167;59.120;37.898;2023-04-25T13:17:54;10.50;;;5.20;;
71696;SDS011;68167;59.120;37.898;2023-04-25T13:20:21;9.67;;;4.80;;
71696;SDS011;68167;59.120;37.898;2023-04-25T13:22:48;16.80;;;5.57;;
71696;SDS011;68167;59.120;37.898;2023-04-25T13:25:14;8.05;;;4.88;;
71696;SDS011;68167;59.120;37.898;2023-04-25T13:27:42;8.93;;;4.85;;
71696;SDS011;68167;59.120;37.898;2023-04-25T13:30:10;11.02;;;4.80;;
71696;SDS011;68167;59.120;37.898;2023-04-25T13:32:37;7.57;;;5.70;;
71696;SDS011;68167;59.120;37.898;2023-04-25T13:35:04;9.07;;;5.70;;
71696;SDS011;68167;59.120;37.898;2023-04-25T13:37:33;11.15;;;5.50;;
71696;SDS011;68167;59.120;37.898;2023-04-25T13:40:00;9.90;;;5.05;;
71696;SDS011;68167;59.120;37.898;2023-04-25T13:42:30;8.30;;;4.88;;
71696;SDS011;68167;59.120;37.898;2023-04-25T13:44:57;7.45;;;4.53;;
71696;SDS011;68167;59.120;37.898;2023-04-25T13:47:24;9.13;;;4.65;;
71696;SDS011;68167;59.120;37.898;2023-04-25T13:49:52;9.88;;;4.85;;
71696;SDS011;68167;59.120;37.898;2023-04-25T13:52:18;7.30;;;5.22;;
71696;SDS011;68167;59.120;37.898;2023-04-25T13:54:45;14.32;;;10.00;;
71696;SDS011;68167;59.120;37.898;2023-04-25T13:57:12;13.15;;;5.10;;
71696;SDS011;68167;59.120;37.898;2023-04-25T13:59:39;14.73;;;4.63;;
71696;SDS011;68167;59.120;37.898;2023-04-25T14:02:06;13.98;;;4.93;;
71696;SDS011;68167;59.120;37.898;2023-04-25T14:04:33;19.05;;;4.78;;
71696;SDS011;68167;59.120;37.898;2023-04-25T14:07:00;6.43;;;4.15;;
71696;SDS011;68167;59.120;37.898;2023-04-25T14:09:28;8.23;;;4.78;;
71696;SDS011;68167;59.120;37.898;2023-04-25T14:11:54;6.57;;;3.78;;
71696;SDS011;68167;59.120;37.898;2023-04-25T14:14:22;8.75;;;4.00;;
71696;SDS011;68167;59.120;37.898;2023-04-25T14:16:49;9.05;;;4.72;;
71696;SDS011;68167;59.120;37.898;2023-04-25T14:19:17;7.38;;;3.88;;
71696;SDS011;68167;59.120;37.898;2023-04-25T14:21:44;9.23;;;4.28;;
71696;SDS011;68167;59.120;37.898;2023-04-25T14:24:10;15.68;;;4.38;;
71696;SDS011;68167;59.120;37.898;2023-04-25T14:26:37;7.32;;;4.65;;
71696;SDS011;68167;59.120;37.898;2023-04-25T14:29:06;8.13;;;4.30;;
71696;SDS011;68167;59.120;37.898;2023-04-25T14:31:34;9.90;;;4.07;;
71696;SDS011;68167;59.120;37.898;2023-04-25T14:34:01;7.38;;;4.20;;
71696;SDS011;68167;59.120;37.898;2023-04-25T14:36:28;7.28;;;4.13;;
71696;SDS011;68167;59.120;37.898;2023-04-25T14:38:56;10.25;;;3.92;;
71696;SDS011;68167;59.120;37.898;2023-04-25T14:41:23;8.82;;;3.47;;
71696;SDS011;68167;59.120;37.898;2023-04-25T14:43:50;12.32;;;4.35;;
71696;SDS011;68167;59.120;37.898;2023-04-25T14:46:19;8.95;;;4.03;;
71696;SDS011;68167;59.120;37.898;2023-04-25T14:48:46;7.82;;;3.53;;
71696;SDS011;68167;59.120;37.898;2023-04-25T14:51:12;13.30;;;4.30;;
71696;SDS011;68167;59.120;37.898;2023-04-25T14:53:39;7.10;;;3.95;;
71696;SDS011;68167;59.120;37.898;2023-04-25T14:56:06;4.38;;;3.13;;
71696;SDS011;68167;59.120;37.898;2023-04-25T14:58:33;6.47;;;4.22;;
71696;SDS011;68167;59.120;37.898;2023-04-25T15:00:59;7.55;;;4.50;;
71696;SDS011;68167;59.120;37.898;2023-04-25T15:03:27;8.32;;;4.22;;